Walton Smith — WCZ6292 — position and weather

sailwx.info

Track history (hours):
 
Tides and Currents Weather Stations Pressure Air Temp Water Temp Dewpoint Dewpoint Depression Visibility Wind Speed Wind Dir Waves Ship Positions

Oceanographic research ship Walton Smith (USA)

Detailed information on ship capabilities available from University of Delaware's Ocean Information Center.

Owner: UNIVERSITY OF MIAMI, MIAMI, FL. More information available from US FCC via Universal Licensing System and Coast Guard Vessel Documentation Center.

Last reported at 2017-Oct-19 22:31 UTC. Time now 2017-Oct-20 19:56 UTC.
Position N 25°44' W 080°10'.

Length 29 m; draft 2 m.

MMSI: 367020910.

Date/timePositionNaut miles runAvg speedWind from/ knotsBaromVisibWave heightAir tempDewpointWater temp
2017-Oct-19 22:31N 25°44' W 080°10'0 0.0
2017-Oct-19 22:30N 25°44' W 080°10'1 2.6
2017-Oct-19 21:57N 25°45' W 080°11'2 5.3
2017-Oct-19 21:30N 25°46' W 080°09'4 8.1
2017-Oct-19 21:00N 25°44' W 080°05'4 8.5
2017-Oct-19 20:30N 25°42' W 080°01'4 7.1
2017-Oct-19 20:00N 25°39' W 079°59'5 9.1
2017-Oct-19 19:28N 25°35' W 079°55'6 1.1
2017-Oct-19 13:51N 25°35' W 080°02'3 7.2
2017-Oct-19 13:30N 25°36' W 080°04'4 8.3
2017-Oct-19 13:01N 25°39' W 080°08'3 6.9
2017-Oct-19 12:31N 25°40' W 080°12'4 7.2
2017-Oct-19 12:00N 25°43' W 080°10'1 1.5
2017-Oct-19 11:30N 25°44' W 080°10'0 0.0
2017-Oct-19 11:00N 25°44' W 080°10'0 0.0
2017-Oct-19 10:30N 25°44' W 080°10'0 0.0
2017-Oct-19 10:00N 25°44' W 080°10'0 0.0
2017-Oct-19 09:30N 25°44' W 080°10'0 0.0
2017-Oct-19 09:00N 25°44' W 080°10'0 0.0
2017-Oct-19 08:30N 25°44' W 080°10'0 0.0
2017-Oct-19 08:00N 25°44' W 080°10'0 0.0
2017-Oct-19 07:30N 25°44' W 080°10'0 0.0
2017-Oct-19 07:00N 25°44' W 080°10'0 0.0
2017-Oct-19 06:30N 25°44' W 080°10'0 0.0
2017-Oct-19 06:00N 25°44' W 080°10'0 0.0
2017-Oct-19 05:30N 25°44' W 080°10'0 0.0
2017-Oct-19 05:00N 25°44' W 080°10'0 0.0
2017-Oct-19 04:30N 25°44' W 080°10'0 0.0
2017-Oct-19 04:00N 25°44' W 080°10'0 0.0
2017-Oct-19 03:30N 25°44' W 080°10'0 0.0
2017-Oct-19 03:00N 25°44' W 080°10'0 0.0
2017-Oct-19 02:30N 25°44' W 080°10'0 0.0
2017-Oct-19 02:00N 25°44' W 080°10'0 0.0
2017-Oct-19 01:30N 25°44' W 080°10'0 0.0
2017-Oct-19 01:00N 25°44' W 080°10'0 0.0
2017-Oct-19 00:30N 25°44' W 080°10'0 0.0
2017-Oct-19 00:00N 25°44' W 080°10'0 0.0
2017-Oct-18 23:30N 25°44' W 080°10'0 0.0
2017-Oct-18 23:00N 25°44' W 080°10'0 0.0
2017-Oct-18 22:30N 25°44' W 080°10'0 0.0
2017-Oct-18 22:00N 25°44' W 080°10'0 0.0
2017-Oct-18 21:31N 25°44' W 080°10'0 0.0
2017-Oct-18 21:00N 25°44' W 080°10'0 0.0
2017-Oct-18 20:30N 25°44' W 080°10'0 0.0
2017-Oct-18 20:01N 25°44' W 080°10'0 0.0
2017-Oct-18 19:30N 25°44' W 080°10'0 0.0
2017-Oct-18 19:00N 25°44' W 080°10'0 0.0
2017-Oct-18 18:30N 25°44' W 080°10'0 0.0
2017-Oct-18 18:00N 25°44' W 080°10'0 0.0
2017-Oct-18 17:30N 25°44' W 080°10'0 0.0
2017-Oct-18 17:00N 25°44' W 080°10'0 0.0
2017-Oct-18 16:30N 25°44' W 080°10'0 0.0
2017-Oct-18 16:00N 25°44' W 080°10'0 0.0
2017-Oct-18 15:30N 25°44' W 080°10'0 0.0
2017-Oct-18 15:00N 25°44' W 080°10'0 0.0
2017-Oct-18 14:00N 25°44' W 080°10'0 0.0
2017-Oct-18 13:30N 25°44' W 080°10'0 0.0
2017-Oct-18 13:00N 25°44' W 080°10'0 0.0
2017-Oct-18 12:30N 25°44' W 080°10'0 0.0
2017-Oct-18 12:01N 25°44' W 080°10'0 0.0
2017-Oct-18 11:31N 25°44' W 080°10'0 0.0
2017-Oct-18 11:00N 25°44' W 080°10'0 0.0
2017-Oct-18 10:31N 25°44' W 080°10'0 0.0
2017-Oct-18 10:01N 25°44' W 080°10'0 0.0
2017-Oct-18 09:30N 25°44' W 080°10'0 0.0
2017-Oct-18 09:01N 25°44' W 080°10'0 0.0
2017-Oct-18 08:30N 25°44' W 080°10'0 0.0
2017-Oct-18 08:01N 25°44' W 080°10'0 0.0
2017-Oct-18 07:31N 25°44' W 080°10'0 0.0
2017-Oct-18 07:00N 25°44' W 080°10'0 0.0
2017-Oct-18 06:30N 25°44' W 080°10'0 0.0
2017-Oct-18 06:01N 25°44' W 080°10'0 0.0
2017-Oct-18 05:30N 25°44' W 080°10'0 0.0
2017-Oct-18 05:01N 25°44' W 080°10'0 0.0
2017-Oct-18 04:30N 25°44' W 080°10'0 0.0
2017-Oct-18 04:01N 25°44' W 080°10'0 0.0
2017-Oct-18 03:31N 25°44' W 080°10'0 0.0
2017-Oct-18 03:01N 25°44' W 080°10'0 0.0
2017-Oct-18 02:31N 25°44' W 080°10'0 0.0
2017-Oct-18 02:01N 25°44' W 080°10'0 0.0
2017-Oct-18 01:30N 25°44' W 080°10'0 0.0
2017-Oct-18 01:01N 25°44' W 080°10'0 0.0
2017-Oct-18 00:31N 25°44' W 080°10'0 0.0
2017-Oct-18 00:00N 25°44' W 080°10'0 0.0
2017-Oct-17 23:31N 25°44' W 080°10'0 0.0
2017-Oct-17 23:00N 25°44' W 080°10'0 0.0
2017-Oct-17 22:30N 25°44' W 080°10'1 2.6
2017-Oct-17 22:01N 25°43' W 080°11'3 6.1
2017-Oct-17 21:31N 25°46' W 080°10'4 8.1
2017-Oct-17 21:01N 25°46' W 080°05'5 9.1
2017-Oct-17 20:31N 25°51' W 080°05'4 8.3
2017-Oct-17 20:01N 25°55' W 080°06'4 8.6
2017-Oct-17 19:31N 25°59' W 080°05'4 8.3
2017-Oct-17 19:01N 26°03' W 080°04'4 8.7
2017-Oct-17 18:31N 26°07' W 080°04'5 9.2
2017-Oct-17 18:01N 26°12' W 080°04'4 8.1
2017-Oct-17 17:30N 26°16' W 080°03'4 7.2
2017-Oct-17 17:00N 26°20' W 080°02'4 7.2
2017-Oct-17 16:31N 26°23' W 080°02'4 7.6
2017-Oct-17 16:00N 26°27' W 080°02'4 8.7
2017-Oct-17 15:31N 26°31' W 080°01'4 8.1
2017-Oct-17 15:01N 26°35' W 080°01'3 6.8
2017-Oct-17 14:31N 26°39' W 079°60'4 7.0
2017-Oct-17 14:01N 26°42' W 079°59'4 8.5
2017-Oct-17 13:31N 26°46' W 079°60'4 8.2
2017-Oct-17 13:01N 26°50' W 079°60'4 7.2
2017-Oct-17 12:31N 26°54' W 079°60'4 7.4
2017-Oct-17 12:01N 26°58' W 079°60'3 5.8
2017-Oct-17 11:31N 27°00' W 079°58'2 4.3
2017-Oct-17 11:00N 27°00' W 079°56'2 3.0
2017-Oct-17 10:30N 26°60' W 079°54'2 3.7
2017-Oct-17 10:01N 26°60' W 079°52'2 4.1
2017-Oct-17 09:31N 26°60' W 079°50'3 5.4
2017-Oct-17 09:01N 27°00' W 079°47'1 2.3
2017-Oct-17 08:31N 26°59' W 079°46'3 6.5
2017-Oct-17 08:01N 26°60' W 079°43'2 3.7
2017-Oct-17 07:31N 26°60' W 079°41'1 2.1
2017-Oct-17 07:01N 26°59' W 079°40'3 6.2
2017-Oct-17 06:31N 27°01' W 079°37'1 2.5
2017-Oct-17 06:01N 26°60' W 079°37'2 4.7
2017-Oct-17 05:31N 26°60' W 079°34'4 7.0
2017-Oct-17 05:01N 27°00' W 079°30'1 1.7
2017-Oct-17 04:31N 26°60' W 079°30'1 2.8
2017-Oct-17 04:01N 26°59' W 079°28'4 7.5
2017-Oct-17 03:31N 27°00' W 079°24'1 2.4
2017-Oct-17 03:01N 26°60' W 079°23'1 1.6
2017-Oct-17 02:31N 26°59' W 079°22'4 8.2
2017-Oct-17 02:00N 27°00' W 079°18'0 0.8
2017-Oct-17 01:31N 26°60' W 079°17'2 4.8
2017-Oct-17 01:01N 26°60' W 079°14'2 4.2
2017-Oct-17 00:31N 27°00' W 079°12'1 2.3
2017-Oct-17 00:01N 27°00' W 079°11'2 4.4
2017-Oct-16 23:31N 26°58' W 079°11'4 8.0
2017-Oct-16 23:01N 26°54' W 079°13'4 8.2
2017-Oct-16 22:31N 26°51' W 079°16'4 8.3
2017-Oct-16 22:01N 26°48' W 079°18'4 8.6
2017-Oct-16 21:31N 26°44' W 079°21'5 9.1
2017-Oct-16 21:01N 26°40' W 079°24'5 9.2
2017-Oct-16 20:31N 26°36' W 079°27'5 9.2
2017-Oct-16 20:00N 26°33' W 079°30'5 9.5
2017-Oct-16 19:31N 26°29' W 079°33'5 9.8
2017-Oct-16 19:01N 26°25' W 079°36'510.0
2017-Oct-16 18:31N 26°21' W 079°39'510.2
2017-Oct-16 18:01N 26°16' W 079°42'510.5
2017-Oct-16 17:31N 26°12' W 079°46'510.8
2017-Oct-16 17:01N 26°07' W 079°49'510.5
2017-Oct-16 16:31N 26°03' W 079°52'510.5
2017-Oct-16 16:01N 25°59' W 079°55'510.7
2017-Oct-16 15:31N 25°54' W 079°59'510.4
2017-Oct-16 15:01N 25°50' W 080°02'5 9.0
2017-Oct-16 14:31N 25°46' W 080°05'6 6.3
2017-Oct-16 13:30N 25°44' W 080°11'1 2.4
2017-Oct-16 13:01N 25°44' W 080°10'0 0.0
2017-Oct-16 12:31N 25°44' W 080°10'0 0.0
2017-Oct-16 12:01N 25°44' W 080°10'0 0.0
2017-Oct-16 11:30N 25°44' W 080°10'0 0.0
2017-Oct-16 11:01N 25°44' W 080°10'0 0.0
2017-Oct-16 10:31N 25°44' W 080°10'0 0.0
2017-Oct-16 10:00N 25°44' W 080°10'0 0.0
2017-Oct-16 09:31N 25°44' W 080°10'0 0.0
2017-Oct-16 09:01N 25°44' W 080°10'0 0.0
2017-Oct-16 08:31N 25°44' W 080°10'0 0.0
2017-Oct-16 08:00N 25°44' W 080°10'0 0.0
2017-Oct-16 07:30N 25°44' W 080°10'0 0.0
2017-Oct-16 07:00N 25°44' W 080°10'0 0.0
2017-Oct-16 06:30N 25°44' W 080°10'0 0.0
2017-Oct-16 06:01N 25°44' W 080°10'0 0.0
2017-Oct-16 05:30N 25°44' W 080°10'0 0.0
2017-Oct-16 05:00N 25°44' W 080°10'0 0.0
2017-Oct-16 04:31N 25°44' W 080°10'0 0.0
2017-Oct-16 04:01N 25°44' W 080°10'0 0.0
2017-Oct-16 03:31N 25°44' W 080°10'0 0.0
2017-Oct-16 03:01N 25°44' W 080°10'0 0.0
2017-Oct-16 02:30N 25°44' W 080°10'0 0.0
2017-Oct-16 02:01N 25°44' W 080°10'0 0.0
2017-Oct-16 01:31N 25°44' W 080°10'0 0.0
2017-Oct-16 01:00N 25°44' W 080°10'0 0.0
2017-Oct-16 00:31N 25°44' W 080°10'0 0.0
2017-Oct-16 00:00N 25°44' W 080°10'0 0.0
2017-Oct-15 23:30N 25°44' W 080°10'0 0.0
2017-Oct-15 23:00N 25°44' W 080°10'0 0.0
2017-Oct-15 22:31N 25°44' W 080°10'0 0.0
2017-Oct-15 22:01N 25°44' W 080°10'0 0.0
2017-Oct-15 21:31N 25°44' W 080°10'0 0.0
2017-Oct-15 21:00N 25°44' W 080°10'0 0.0
2017-Oct-15 20:31N 25°44' W 080°10'0 0.0
2017-Oct-15 20:00N 25°44' W 080°10'0 0.0
2017-Oct-15 19:30N 25°44' W 080°10'0 0.0
2017-Oct-15 19:01N 25°44' W 080°10'0 0.0
2017-Oct-15 18:31N 25°44' W 080°10'0 0.0
2017-Oct-15 18:00N 25°44' W 080°10'0 0.0
2017-Oct-15 17:31N 25°44' W 080°10'0 0.0
2017-Oct-15 17:00N 25°44' W 080°10'0 0.0
2017-Oct-15 16:31N 25°44' W 080°10'0 0.0
2017-Oct-15 16:01N 25°44' W 080°10'0 0.0
2017-Oct-15 15:31N 25°44' W 080°10'0 0.0
2017-Oct-15 15:00N 25°44' W 080°10'0 0.0
2017-Oct-15 14:00N 25°44' W 080°10'0 0.0
2017-Oct-15 13:31N 25°44' W 080°10'0 0.0
2017-Oct-15 13:01N 25°44' W 080°10'0 0.0
2017-Oct-15 12:30N 25°44' W 080°10'0 0.0
2017-Oct-15 12:01N 25°44' W 080°10'0 0.0
2017-Oct-15 11:31N 25°44' W 080°10'0 0.0
2017-Oct-15 11:00N 25°44' W 080°10'0 0.0
2017-Oct-15 10:30N 25°44' W 080°10'0 0.0
2017-Oct-15 10:01N 25°44' W 080°10'0 0.0
2017-Oct-15 09:30N 25°44' W 080°10'0 0.0
2017-Oct-15 09:01N 25°44' W 080°10'0 0.0
2017-Oct-15 08:31N 25°44' W 080°10'0 0.0
2017-Oct-15 08:01N 25°44' W 080°10'0 0.0
2017-Oct-15 07:31N 25°44' W 080°10'0 0.0
2017-Oct-15 07:00N 25°44' W 080°10'0 0.0
2017-Oct-15 06:31N 25°44' W 080°10'0 0.0
2017-Oct-15 06:00N 25°44' W 080°10'0 0.0
2017-Oct-15 05:31N 25°44' W 080°10'0 0.0
2017-Oct-15 05:01N 25°44' W 080°10'0 0.0
2017-Oct-15 04:30N 25°44' W 080°10'0 0.0
2017-Oct-15 04:01N 25°44' W 080°10'0 0.0
2017-Oct-15 03:30N 25°44' W 080°10'0 0.0
2017-Oct-15 03:01N 25°44' W 080°10'0 0.0
2017-Oct-15 02:30N 25°44' W 080°10'0 0.0
2017-Oct-15 02:01N 25°44' W 080°10'0 0.0
2017-Oct-15 01:31N 25°44' W 080°10'0 0.0
2017-Oct-15 01:01N 25°44' W 080°10'0 0.0
2017-Oct-15 00:31N 25°44' W 080°10'0 0.0
2017-Oct-15 00:01N 25°44' W 080°10'0 0.0
2017-Oct-14 23:31N 25°44' W 080°10'0 0.0
2017-Oct-14 23:01N 25°44' W 080°10'0 0.0
2017-Oct-14 22:31N 25°44' W 080°10'0 0.0
2017-Oct-14 22:01N 25°44' W 080°10'0 0.0
2017-Oct-14 21:30N 25°44' W 080°10'0 0.0
2017-Oct-14 21:01N 25°44' W 080°10'0 0.0
2017-Oct-14 20:31N 25°44' W 080°10'0 0.0
2017-Oct-14 20:01N 25°44' W 080°10'0 0.0
2017-Oct-14 19:31N 25°44' W 080°10'0 0.0
2017-Oct-14 19:00N 25°44' W 080°10'0 0.0
2017-Oct-14 18:31N 25°44' W 080°10'0 0.0
2017-Oct-14 18:01N 25°44' W 080°10'0 0.0
2017-Oct-14 17:31N 25°44' W 080°10'0 0.0
2017-Oct-14 17:00N 25°44' W 080°10'0 0.0
2017-Oct-14 16:31N 25°44' W 080°10'0 0.0
2017-Oct-14 16:00N 25°44' W 080°10'0 0.0
2017-Oct-14 15:31N 25°44' W 080°10'0 0.0
2017-Oct-14 15:00N 25°44' W 080°10'0 0.0
2017-Oct-14 14:30N 25°44' W 080°10'0 0.0
2017-Oct-14 14:00N 25°44' W 080°10'0 0.0
2017-Oct-14 13:30N 25°44' W 080°10'0 0.0
2017-Oct-14 13:00N 25°44' W 080°10'0 0.0
2017-Oct-14 12:31N 25°44' W 080°10'0 0.0
2017-Oct-14 12:01N 25°44' W 080°10'0 0.0
2017-Oct-14 11:31N 25°44' W 080°10'0 0.0
2017-Oct-14 11:01N 25°44' W 080°10'0 0.0
2017-Oct-14 10:31N 25°44' W 080°10'0 0.0
2017-Oct-14 10:01N 25°44' W 080°10'0 0.0
2017-Oct-14 09:30N 25°44' W 080°10'0 0.0
2017-Oct-14 09:01N 25°44' W 080°10'0 0.0
2017-Oct-14 08:30N 25°44' W 080°10'0 0.0
2017-Oct-14 08:01N 25°44' W 080°10'0 0.0
2017-Oct-14 07:30N 25°44' W 080°10'0 0.0
2017-Oct-14 07:00N 25°44' W 080°10'0 0.0
2017-Oct-14 06:31N 25°44' W 080°10'0 0.0
2017-Oct-14 06:01N 25°44' W 080°10'0 0.0
2017-Oct-14 05:30N 25°44' W 080°10'0 0.0
2017-Oct-14 05:01N 25°44' W 080°10'0 0.0
2017-Oct-14 04:31N 25°44' W 080°10'0 0.0
2017-Oct-14 04:01N 25°44' W 080°10'0 0.0
2017-Oct-14 03:31N 25°44' W 080°10'0 0.0
2017-Oct-14 03:00N 25°44' W 080°10'0 0.0
2017-Oct-14 02:31N 25°44' W 080°10'0 0.0
2017-Oct-14 02:00N 25°44' W 080°10'0 0.0
2017-Oct-14 01:30N 25°44' W 080°10'0 0.0
2017-Oct-14 01:00N 25°44' W 080°10'0 0.0
2017-Oct-14 00:30N 25°44' W 080°10'0 0.0
2017-Oct-14 00:01N 25°44' W 080°10'0 0.0
2017-Oct-13 23:30N 25°44' W 080°10'0 0.0
2017-Oct-13 23:00N 25°44' W 080°10'0 0.0
2017-Oct-13 22:30N 25°44' W 080°10'1 2.7
2017-Oct-13 22:01N 25°43' W 080°11'3 6.9
2017-Oct-13 21:31N 25°39' W 080°11'4 7.7
2017-Oct-13 21:01N 25°38' W 080°07'4 7.8
2017-Oct-13 20:31N 25°35' W 080°05'4 8.5
2017-Oct-13 20:01N 25°31' W 080°05'4 8.8
2017-Oct-13 19:30N 25°26' W 080°07'4 9.0
2017-Oct-13 19:01N 25°22' W 080°08'5 9.3
2017-Oct-13 18:31N 25°18' W 080°09'5 9.1
2017-Oct-13 18:01N 25°13' W 080°11'4 8.2
2017-Oct-13 17:31N 25°10' W 080°14'4 8.7
2017-Oct-13 17:00N 25°06' W 080°17'4 8.7
2017-Oct-13 16:30N 25°03' W 080°19'5 9.0
2017-Oct-13 16:01N 24°59' W 080°23'4 8.6
2017-Oct-13 15:31N 24°57' W 080°26'4 8.2
2017-Oct-13 15:01N 24°55' W 080°30'4 7.1
2017-Oct-13 14:31N 24°52' W 080°33'4 7.7
2017-Oct-13 14:01N 24°50' W 080°37'4 7.4
2017-Oct-13 13:31N 24°50' W 080°41'4 7.1
2017-Oct-13 13:01N 24°49' W 080°45'4 7.3
2017-Oct-13 12:31N 24°47' W 080°48'4 7.4
2017-Oct-13 12:01N 24°45' W 080°52'4 7.3
2017-Oct-13 11:31N 24°44' W 080°55'4 7.4
2017-Oct-13 11:01N 24°42' W 080°59'4 7.2
2017-Oct-13 10:31N 24°40' W 081°02'3 7.0
2017-Oct-13 10:01N 24°37' W 081°05'3 6.9
2017-Oct-13 09:31N 24°36' W 081°08'4 7.0
2017-Oct-13 09:01N 24°36' W 081°12'4 7.4
2017-Oct-13 08:31N 24°36' W 081°16'4 7.4
2017-Oct-13 08:01N 24°37' W 081°20'4 7.4
2017-Oct-13 07:31N 24°36' W 081°24'4 7.4
2017-Oct-13 07:01N 24°35' W 081°28'4 7.4
2017-Oct-13 06:31N 24°35' W 081°32'4 7.2
2017-Oct-13 06:01N 24°34' W 081°36'4 7.3
2017-Oct-13 05:31N 24°33' W 081°40'4 7.5
2017-Oct-13 05:01N 24°32' W 081°44'4 7.4
2017-Oct-13 04:30N 24°32' W 081°48'3 6.6
2017-Oct-13 04:01N 24°34' W 081°50'4 7.9
2017-Oct-13 03:31N 24°37' W 081°53'4 7.3
2017-Oct-13 03:01N 24°40' W 081°55'4 7.8
2017-Oct-13 02:31N 24°44' W 081°57'4 7.8
2017-Oct-13 02:01N 24°48' W 081°58'4 7.9
2017-Oct-13 01:31N 24°51' W 081°59'4 8.0
2017-Oct-13 01:01N 24°55' W 082°01'4 8.0
2017-Oct-13 00:31N 24°59' W 082°02'4 8.0
2017-Oct-13 00:01N 25°03' W 082°04'4 8.1
2017-Oct-12 23:31N 25°07' W 082°05'4 8.2
2017-Oct-12 23:01N 25°10' W 082°07'4 8.2
2017-Oct-12 22:31N 25°14' W 082°08'4 8.2
2017-Oct-12 22:01N 25°18' W 082°10'4 8.2
2017-Oct-12 21:31N 25°22' W 082°12'3 5.2
2017-Oct-12 21:00N 25°24' W 082°12'4 7.1
2017-Oct-12 20:31N 25°26' W 082°09'3 6.8
2017-Oct-12 20:01N 25°28' W 082°06'4 7.9
2017-Oct-12 19:31N 25°32' W 082°05'3 5.3
2017-Oct-12 19:01N 25°35' W 082°04'4 8.1
2017-Oct-12 18:31N 25°38' W 082°01'4 8.2
2017-Oct-12 18:01N 25°41' W 081°59'4 7.2
2017-Oct-12 17:31N 25°44' W 081°57'3 6.8
2017-Oct-12 17:01N 25°47' W 081°54'4 8.4
2017-Oct-12 16:31N 25°50' W 081°51'3 5.9
2017-Oct-12 16:01N 25°53' W 081°50'3 5.7
2017-Oct-12 15:31N 25°55' W 081°48'3 5.1
2017-Oct-12 15:01N 25°57' W 081°46'4 7.5
2017-Oct-12 14:31N 25°53' W 081°45'4 7.8
2017-Oct-12 14:01N 25°49' W 081°45'4 7.7
2017-Oct-12 13:31N 25°46' W 081°44'4 7.5
2017-Oct-12 13:01N 25°42' W 081°44'3 5.7
2017-Oct-12 12:31N 25°39' W 081°43'3 6.4
2017-Oct-12 12:01N 25°40' W 081°40'4 7.7
2017-Oct-12 11:31N 25°42' W 081°36'2 4.9
2017-Oct-12 11:01N 25°44' W 081°34'4 7.4
2017-Oct-12 10:31N 25°46' W 081°31'2 4.2
2017-Oct-12 10:01N 25°47' W 081°29'4 7.4
2017-Oct-12 09:31N 25°43' W 081°29'4 7.5
2017-Oct-12 09:01N 25°39' W 081°29'4 7.5
2017-Oct-12 08:31N 25°36' W 081°28'2 3.9
2017-Oct-12 08:01N 25°35' W 081°26'4 7.3
2017-Oct-12 07:31N 25°35' W 081°22'3 5.3
2017-Oct-12 07:01N 25°35' W 081°19'2 3.0
2017-Oct-12 06:31N 25°34' W 081°18'4 7.1
2017-Oct-12 06:01N 25°31' W 081°20'4 7.0
2017-Oct-12 05:31N 25°27' W 081°21'2 4.5
2017-Oct-12 05:01N 25°27' W 081°19'3 5.9
2017-Oct-12 04:31N 25°27' W 081°15'2 3.3
2017-Oct-12 04:01N 25°26' W 081°14'3 6.1
2017-Oct-12 03:31N 25°23' W 081°14'3 6.9
2017-Oct-12 03:01N 25°20' W 081°14'3 6.3
2017-Oct-12 02:31N 25°20' W 081°10'1 2.1
2017-Oct-12 02:01N 25°20' W 081°09'2 4.0
2017-Oct-12 01:31N 25°19' W 081°11'2 3.2
2017-Oct-12 01:01N 25°21' W 081°12'2 3.7
2017-Oct-12 00:31N 25°21' W 081°14'2 4.2
2017-Oct-12 00:01N 25°21' W 081°16'2 4.6
2017-Oct-11 23:31N 25°21' W 081°19'1 2.7
2017-Oct-11 23:01N 25°21' W 081°20'4 7.6
2017-Oct-11 22:31N 25°21' W 081°24'4 7.8
2017-Oct-11 22:01N 25°21' W 081°29'1 1.5
2017-Oct-11 21:31N 25°21' W 081°29'4 7.9
2017-Oct-11 21:01N 25°21' W 081°34'4 8.1
2017-Oct-11 20:31N 25°21' W 081°38'1 1.8
2017-Oct-11 20:01N 25°20' W 081°39'4 7.6
2017-Oct-11 19:31N 25°17' W 081°39'4 7.8
2017-Oct-11 19:01N 25°13' W 081°40'3 5.3
2017-Oct-11 18:31N 25°10' W 081°39'3 5.8
2017-Oct-11 18:01N 25°10' W 081°36'48 2.7
2017-Oct-11 00:01N 24°24' W 081°50'3 6.9
2017-Oct-10 23:31N 24°26' W 081°47'4 7.7
2017-Oct-10 23:01N 24°28' W 081°44'2 3.2
2017-Oct-10 22:31N 24°29' W 081°42'4 7.2
2017-Oct-10 22:01N 24°29' W 081°38'5 9.4
2017-Oct-10 21:31N 24°29' W 081°33'4 8.5
2017-Oct-10 21:01N 24°29' W 081°28'4 7.2
2017-Oct-10 20:31N 24°29' W 081°24'1 1.1
2017-Oct-10 20:01N 24°29' W 081°24'3 5.5
2017-Oct-10 19:31N 24°31' W 081°26'1 2.5
2017-Oct-10 19:01N 24°32' W 081°25'3 5.1
2017-Oct-10 18:31N 24°34' W 081°25'2 4.3
2017-Oct-10 18:01N 24°37' W 081°25'3 7.0
2017-Oct-10 17:31N 24°37' W 081°21'4 8.5
2017-Oct-10 17:01N 24°38' W 081°17'4 8.1
2017-Oct-10 16:31N 24°40' W 081°13'1 1.4
2017-Oct-10 16:01N 24°39' W 081°12'3 5.3
2017-Oct-10 15:31N 24°37' W 081°11'2 4.7
2017-Oct-10 15:01N 24°34' W 081°11'7 6.5
2017-Oct-10 14:01N 24°35' W 081°04'4 7.5
2017-Oct-10 13:31N 24°36' W 081°00'1 1.6
2017-Oct-10 13:01N 24°37' W 081°00'2 4.9
2017-Oct-10 12:31N 24°39' W 081°01'2 3.6
2017-Oct-10 12:01N 24°41' W 081°02'2 3.2
2017-Oct-10 11:31N 24°42' W 081°02'3 6.4
2017-Oct-10 11:01N 24°43' W 080°58'4 8.4
2017-Oct-10 10:31N 24°45' W 080°54'4 7.1
2017-Oct-10 10:01N 24°47' W 080°52'2 4.0
2017-Oct-10 09:31N 24°45' W 080°51'2 4.6
2017-Oct-10 09:01N 24°43' W 080°50'2 4.4
2017-Oct-10 08:31N 24°43' W 080°48'4 7.1
2017-Oct-10 08:01N 24°43' W 080°44'2 4.6
2017-Oct-10 07:31N 24°43' W 080°41'2 3.2
2017-Oct-10 07:01N 24°45' W 080°43'2 3.3
2017-Oct-10 06:31N 24°46' W 080°44'2 3.6
2017-Oct-10 06:01N 24°48' W 080°45'2 3.3
2017-Oct-10 05:31N 24°49' W 080°45'4 7.9
2017-Oct-10 05:01N 24°51' W 080°41'4 8.4
2017-Oct-10 04:31N 24°53' W 080°38'4 8.0
2017-Oct-10 04:01N 24°56' W 080°34'2 4.0
2017-Oct-10 03:31N 24°55' W 080°32'2 3.1
2017-Oct-10 03:01N 24°54' W 080°31'4 7.6
2017-Oct-10 02:31N 24°56' W 080°27'4 7.3
2017-Oct-10 02:01N 24°59' W 080°24'2 4.6
2017-Oct-10 01:31N 25°00' W 080°22'0 0.8
2017-Oct-10 01:01N 25°00' W 080°22'3 6.9
2017-Oct-10 00:31N 25°02' W 080°19'1 2.9
2017-Oct-10 00:01N 25°03' W 080°17'  
Track history (hours):
 
Tides and Currents Weather Stations Pressure Air Temp Water Temp Dewpoint Dewpoint Depression Visibility Wind Speed Wind Dir Waves Ship Positions

Oceanographic research ship Walton Smith (USA)

Detailed information on ship capabilities available from University of Delaware's Ocean Information Center.

Owner: UNIVERSITY OF MIAMI, MIAMI, FL. More information available from US FCC via Universal Licensing System and Coast Guard Vessel Documentation Center.

Last reported at 2017-Oct-19 22:31 UTC. Time now 2017-Oct-20 19:56 UTC.
Position N 25°44' W 080°10'.

Length 29 m; draft 2 m.

MMSI: 367020910.

Date/timePositionNaut miles runAvg speedWind from/ knotsBaromVisibWave heightAir tempDewpointWater temp
2017-Oct-19 22:31N 25°44' W 080°10'0 0.0
2017-Oct-19 22:30N 25°44' W 080°10'1 2.6
2017-Oct-19 21:57N 25°45' W 080°11'2 5.3
2017-Oct-19 21:30N 25°46' W 080°09'4 8.1
2017-Oct-19 21:00N 25°44' W 080°05'4 8.5
2017-Oct-19 20:30N 25°42' W 080°01'4 7.1
2017-Oct-19 20:00N 25°39' W 079°59'5 9.1
2017-Oct-19 19:28N 25°35' W 079°55'6 1.1
2017-Oct-19 13:51N 25°35' W 080°02'3 7.2
2017-Oct-19 13:30N 25°36' W 080°04'4 8.3
2017-Oct-19 13:01N 25°39' W 080°08'3 6.9
2017-Oct-19 12:31N 25°40' W 080°12'4 7.2
2017-Oct-19 12:00N 25°43' W 080°10'1 1.5
2017-Oct-19 11:30N 25°44' W 080°10'0 0.0
2017-Oct-19 11:00N 25°44' W 080°10'0 0.0
2017-Oct-19 10:30N 25°44' W 080°10'0 0.0
2017-Oct-19 10:00N 25°44' W 080°10'0 0.0
2017-Oct-19 09:30N 25°44' W 080°10'0 0.0
2017-Oct-19 09:00N 25°44' W 080°10'0 0.0
2017-Oct-19 08:30N 25°44' W 080°10'0 0.0
2017-Oct-19 08:00N 25°44' W 080°10'0 0.0
2017-Oct-19 07:30N 25°44' W 080°10'0 0.0
2017-Oct-19 07:00N 25°44' W 080°10'0 0.0
2017-Oct-19 06:30N 25°44' W 080°10'0 0.0
2017-Oct-19 06:00N 25°44' W 080°10'0 0.0
2017-Oct-19 05:30N 25°44' W 080°10'0 0.0
2017-Oct-19 05:00N 25°44' W 080°10'0 0.0
2017-Oct-19 04:30N 25°44' W 080°10'0 0.0
2017-Oct-19 04:00N 25°44' W 080°10'0 0.0
2017-Oct-19 03:30N 25°44' W 080°10'0 0.0
2017-Oct-19 03:00N 25°44' W 080°10'0 0.0
2017-Oct-19 02:30N 25°44' W 080°10'0 0.0
2017-Oct-19 02:00N 25°44' W 080°10'0 0.0
2017-Oct-19 01:30N 25°44' W 080°10'0 0.0
2017-Oct-19 01:00N 25°44' W 080°10'0 0.0
2017-Oct-19 00:30N 25°44' W 080°10'0 0.0
2017-Oct-19 00:00N 25°44' W 080°10'0 0.0
2017-Oct-18 23:30N 25°44' W 080°10'0 0.0
2017-Oct-18 23:00N 25°44' W 080°10'0 0.0
2017-Oct-18 22:30N 25°44' W 080°10'0 0.0
2017-Oct-18 22:00N 25°44' W 080°10'0 0.0
2017-Oct-18 21:31N 25°44' W 080°10'0 0.0
2017-Oct-18 21:00N 25°44' W 080°10'0 0.0
2017-Oct-18 20:30N 25°44' W 080°10'0 0.0
2017-Oct-18 20:01N 25°44' W 080°10'0 0.0
2017-Oct-18 19:30N 25°44' W 080°10'0 0.0
2017-Oct-18 19:00N 25°44' W 080°10'0 0.0
2017-Oct-18 18:30N 25°44' W 080°10'0 0.0
2017-Oct-18 18:00N 25°44' W 080°10'0 0.0
2017-Oct-18 17:30N 25°44' W 080°10'0 0.0
2017-Oct-18 17:00N 25°44' W 080°10'0 0.0
2017-Oct-18 16:30N 25°44' W 080°10'0 0.0
2017-Oct-18 16:00N 25°44' W 080°10'0 0.0
2017-Oct-18 15:30N 25°44' W 080°10'0 0.0
2017-Oct-18 15:00N 25°44' W 080°10'0 0.0
2017-Oct-18 14:00N 25°44' W 080°10'0 0.0
2017-Oct-18 13:30N 25°44' W 080°10'0 0.0
2017-Oct-18 13:00N 25°44' W 080°10'0 0.0
2017-Oct-18 12:30N 25°44' W 080°10'0 0.0
2017-Oct-18 12:01N 25°44' W 080°10'0 0.0
2017-Oct-18 11:31N 25°44' W 080°10'0 0.0
2017-Oct-18 11:00N 25°44' W 080°10'0 0.0
2017-Oct-18 10:31N 25°44' W 080°10'0 0.0
2017-Oct-18 10:01N 25°44' W 080°10'0 0.0
2017-Oct-18 09:30N 25°44' W 080°10'0 0.0
2017-Oct-18 09:01N 25°44' W 080°10'0 0.0
2017-Oct-18 08:30N 25°44' W 080°10'0 0.0
2017-Oct-18 08:01N 25°44' W 080°10'0 0.0
2017-Oct-18 07:31N 25°44' W 080°10'0 0.0
2017-Oct-18 07:00N 25°44' W 080°10'0 0.0
2017-Oct-18 06:30N 25°44' W 080°10'0 0.0
2017-Oct-18 06:01N 25°44' W 080°10'0 0.0
2017-Oct-18 05:30N 25°44' W 080°10'0 0.0
2017-Oct-18 05:01N 25°44' W 080°10'0 0.0
2017-Oct-18 04:30N 25°44' W 080°10'0 0.0
2017-Oct-18 04:01N 25°44' W 080°10'0 0.0
2017-Oct-18 03:31N 25°44' W 080°10'0 0.0
2017-Oct-18 03:01N 25°44' W 080°10'0 0.0
2017-Oct-18 02:31N 25°44' W 080°10'0 0.0
2017-Oct-18 02:01N 25°44' W 080°10'0 0.0
2017-Oct-18 01:30N 25°44' W 080°10'0 0.0
2017-Oct-18 01:01N 25°44' W 080°10'0 0.0
2017-Oct-18 00:31N 25°44' W 080°10'0 0.0
2017-Oct-18 00:00N 25°44' W 080°10'0 0.0
2017-Oct-17 23:31N 25°44' W 080°10'0 0.0
2017-Oct-17 23:00N 25°44' W 080°10'0 0.0
2017-Oct-17 22:30N 25°44' W 080°10'1 2.6
2017-Oct-17 22:01N 25°43' W 080°11'3 6.1
2017-Oct-17 21:31N 25°46' W 080°10'4 8.1
2017-Oct-17 21:01N 25°46' W 080°05'5 9.1
2017-Oct-17 20:31N 25°51' W 080°05'4 8.3
2017-Oct-17 20:01N 25°55' W 080°06'4 8.6
2017-Oct-17 19:31N 25°59' W 080°05'4 8.3
2017-Oct-17 19:01N 26°03' W 080°04'4 8.7
2017-Oct-17 18:31N 26°07' W 080°04'5 9.2
2017-Oct-17 18:01N 26°12' W 080°04'4 8.1
2017-Oct-17 17:30N 26°16' W 080°03'4 7.2
2017-Oct-17 17:00N 26°20' W 080°02'4 7.2
2017-Oct-17 16:31N 26°23' W 080°02'4 7.6
2017-Oct-17 16:00N 26°27' W 080°02'4 8.7
2017-Oct-17 15:31N 26°31' W 080°01'4 8.1
2017-Oct-17 15:01N 26°35' W 080°01'3 6.8
2017-Oct-17 14:31N 26°39' W 079°60'4 7.0
2017-Oct-17 14:01N 26°42' W 079°59'4 8.5
2017-Oct-17 13:31N 26°46' W 079°60'4 8.2
2017-Oct-17 13:01N 26°50' W 079°60'4 7.2
2017-Oct-17 12:31N 26°54' W 079°60'4 7.4
2017-Oct-17 12:01N 26°58' W 079°60'3 5.8
2017-Oct-17 11:31N 27°00' W 079°58'2 4.3
2017-Oct-17 11:00N 27°00' W 079°56'2 3.0
2017-Oct-17 10:30N 26°60' W 079°54'2 3.7
2017-Oct-17 10:01N 26°60' W 079°52'2 4.1
2017-Oct-17 09:31N 26°60' W 079°50'3 5.4
2017-Oct-17 09:01N 27°00' W 079°47'1 2.3
2017-Oct-17 08:31N 26°59' W 079°46'3 6.5
2017-Oct-17 08:01N 26°60' W 079°43'2 3.7
2017-Oct-17 07:31N 26°60' W 079°41'1 2.1
2017-Oct-17 07:01N 26°59' W 079°40'3 6.2
2017-Oct-17 06:31N 27°01' W 079°37'1 2.5
2017-Oct-17 06:01N 26°60' W 079°37'2 4.7
2017-Oct-17 05:31N 26°60' W 079°34'4 7.0
2017-Oct-17 05:01N 27°00' W 079°30'1 1.7
2017-Oct-17 04:31N 26°60' W 079°30'1 2.8
2017-Oct-17 04:01N 26°59' W 079°28'4 7.5
2017-Oct-17 03:31N 27°00' W 079°24'1 2.4
2017-Oct-17 03:01N 26°60' W 079°23'1 1.6
2017-Oct-17 02:31N 26°59' W 079°22'4 8.2
2017-Oct-17 02:00N 27°00' W 079°18'0 0.8
2017-Oct-17 01:31N 26°60' W 079°17'2 4.8
2017-Oct-17 01:01N 26°60' W 079°14'2 4.2
2017-Oct-17 00:31N 27°00' W 079°12'1 2.3
2017-Oct-17 00:01N 27°00' W 079°11'2 4.4
2017-Oct-16 23:31N 26°58' W 079°11'4 8.0
2017-Oct-16 23:01N 26°54' W 079°13'4 8.2
2017-Oct-16 22:31N 26°51' W 079°16'4 8.3
2017-Oct-16 22:01N 26°48' W 079°18'4 8.6
2017-Oct-16 21:31N 26°44' W 079°21'5 9.1
2017-Oct-16 21:01N 26°40' W 079°24'5 9.2
2017-Oct-16 20:31N 26°36' W 079°27'5 9.2
2017-Oct-16 20:00N 26°33' W 079°30'5 9.5
2017-Oct-16 19:31N 26°29' W 079°33'5 9.8
2017-Oct-16 19:01N 26°25' W 079°36'510.0
2017-Oct-16 18:31N 26°21' W 079°39'510.2
2017-Oct-16 18:01N 26°16' W 079°42'510.5
2017-Oct-16 17:31N 26°12' W 079°46'510.8
2017-Oct-16 17:01N 26°07' W 079°49'510.5
2017-Oct-16 16:31N 26°03' W 079°52'510.5
2017-Oct-16 16:01N 25°59' W 079°55'510.7
2017-Oct-16 15:31N 25°54' W 079°59'510.4
2017-Oct-16 15:01N 25°50' W 080°02'5 9.0
2017-Oct-16 14:31N 25°46' W 080°05'6 6.3
2017-Oct-16 13:30N 25°44' W 080°11'1 2.4
2017-Oct-16 13:01N 25°44' W 080°10'0 0.0
2017-Oct-16 12:31N 25°44' W 080°10'0 0.0
2017-Oct-16 12:01N 25°44' W 080°10'0 0.0
2017-Oct-16 11:30N 25°44' W 080°10'0 0.0
2017-Oct-16 11:01N 25°44' W 080°10'0 0.0
2017-Oct-16 10:31N 25°44' W 080°10'0 0.0
2017-Oct-16 10:00N 25°44' W 080°10'0 0.0
2017-Oct-16 09:31N 25°44' W 080°10'0 0.0
2017-Oct-16 09:01N 25°44' W 080°10'0 0.0
2017-Oct-16 08:31N 25°44' W 080°10'0 0.0
2017-Oct-16 08:00N 25°44' W 080°10'0 0.0
2017-Oct-16 07:30N 25°44' W 080°10'0 0.0
2017-Oct-16 07:00N 25°44' W 080°10'0 0.0
2017-Oct-16 06:30N 25°44' W 080°10'0 0.0
2017-Oct-16 06:01N 25°44' W 080°10'0 0.0
2017-Oct-16 05:30N 25°44' W 080°10'0 0.0
2017-Oct-16 05:00N 25°44' W 080°10'0 0.0
2017-Oct-16 04:31N 25°44' W 080°10'0 0.0
2017-Oct-16 04:01N 25°44' W 080°10'0 0.0
2017-Oct-16 03:31N 25°44' W 080°10'0 0.0
2017-Oct-16 03:01N 25°44' W 080°10'0 0.0
2017-Oct-16 02:30N 25°44' W 080°10'0 0.0
2017-Oct-16 02:01N 25°44' W 080°10'0 0.0
2017-Oct-16 01:31N 25°44' W 080°10'0 0.0
2017-Oct-16 01:00N 25°44' W 080°10'0 0.0
2017-Oct-16 00:31N 25°44' W 080°10'0 0.0
2017-Oct-16 00:00N 25°44' W 080°10'0 0.0
2017-Oct-15 23:30N 25°44' W 080°10'0 0.0
2017-Oct-15 23:00N 25°44' W 080°10'0 0.0
2017-Oct-15 22:31N 25°44' W 080°10'0 0.0
2017-Oct-15 22:01N 25°44' W 080°10'0 0.0
2017-Oct-15 21:31N 25°44' W 080°10'0 0.0
2017-Oct-15 21:00N 25°44' W 080°10'0 0.0
2017-Oct-15 20:31N 25°44' W 080°10'0 0.0
2017-Oct-15 20:00N 25°44' W 080°10'0 0.0
2017-Oct-15 19:30N 25°44' W 080°10'0 0.0
2017-Oct-15 19:01N 25°44' W 080°10'0 0.0
2017-Oct-15 18:31N 25°44' W 080°10'0 0.0
2017-Oct-15 18:00N 25°44' W 080°10'0 0.0
2017-Oct-15 17:31N 25°44' W 080°10'0 0.0
2017-Oct-15 17:00N 25°44' W 080°10'0 0.0
2017-Oct-15 16:31N 25°44' W 080°10'0 0.0
2017-Oct-15 16:01N 25°44' W 080°10'0 0.0
2017-Oct-15 15:31N 25°44' W 080°10'0 0.0
2017-Oct-15 15:00N 25°44' W 080°10'0 0.0
2017-Oct-15 14:00N 25°44' W 080°10'0 0.0
2017-Oct-15 13:31N 25°44' W 080°10'0 0.0
2017-Oct-15 13:01N 25°44' W 080°10'0 0.0
2017-Oct-15 12:30N 25°44' W 080°10'0 0.0
2017-Oct-15 12:01N 25°44' W 080°10'0 0.0
2017-Oct-15 11:31N 25°44' W 080°10'0 0.0
2017-Oct-15 11:00N 25°44' W 080°10'0 0.0
2017-Oct-15 10:30N 25°44' W 080°10'0 0.0
2017-Oct-15 10:01N 25°44' W 080°10'0 0.0
2017-Oct-15 09:30N 25°44' W 080°10'0 0.0
2017-Oct-15 09:01N 25°44' W 080°10'0 0.0
2017-Oct-15 08:31N 25°44' W 080°10'0 0.0
2017-Oct-15 08:01N 25°44' W 080°10'0 0.0
2017-Oct-15 07:31N 25°44' W 080°10'0 0.0
2017-Oct-15 07:00N 25°44' W 080°10'0 0.0
2017-Oct-15 06:31N 25°44' W 080°10'0 0.0
2017-Oct-15 06:00N 25°44' W 080°10'0 0.0
2017-Oct-15 05:31N 25°44' W 080°10'0 0.0
2017-Oct-15 05:01N 25°44' W 080°10'0 0.0
2017-Oct-15 04:30N 25°44' W 080°10'0 0.0
2017-Oct-15 04:01N 25°44' W 080°10'0 0.0
2017-Oct-15 03:30N 25°44' W 080°10'0 0.0
2017-Oct-15 03:01N 25°44' W 080°10'0 0.0
2017-Oct-15 02:30N 25°44' W 080°10'0 0.0
2017-Oct-15 02:01N 25°44' W 080°10'0 0.0
2017-Oct-15 01:31N 25°44' W 080°10'0 0.0
2017-Oct-15 01:01N 25°44' W 080°10'0 0.0
2017-Oct-15 00:31N 25°44' W 080°10'0 0.0
2017-Oct-15 00:01N 25°44' W 080°10'0 0.0
2017-Oct-14 23:31N 25°44' W 080°10'0 0.0
2017-Oct-14 23:01N 25°44' W 080°10'0 0.0
2017-Oct-14 22:31N 25°44' W 080°10'0 0.0
2017-Oct-14 22:01N 25°44' W 080°10'0 0.0
2017-Oct-14 21:30N 25°44' W 080°10'0 0.0
2017-Oct-14 21:01N 25°44' W 080°10'0 0.0
2017-Oct-14 20:31N 25°44' W 080°10'0 0.0
2017-Oct-14 20:01N 25°44' W 080°10'0 0.0
2017-Oct-14 19:31N 25°44' W 080°10'0 0.0
2017-Oct-14 19:00N 25°44' W 080°10'0 0.0
2017-Oct-14 18:31N 25°44' W 080°10'0 0.0
2017-Oct-14 18:01N 25°44' W 080°10'0 0.0
2017-Oct-14 17:31N 25°44' W 080°10'0 0.0
2017-Oct-14 17:00N 25°44' W 080°10'0 0.0
2017-Oct-14 16:31N 25°44' W 080°10'0 0.0
2017-Oct-14 16:00N 25°44' W 080°10'0 0.0
2017-Oct-14 15:31N 25°44' W 080°10'0 0.0
2017-Oct-14 15:00N 25°44' W 080°10'0 0.0
2017-Oct-14 14:30N 25°44' W 080°10'0 0.0
2017-Oct-14 14:00N 25°44' W 080°10'0 0.0
2017-Oct-14 13:30N 25°44' W 080°10'0 0.0
2017-Oct-14 13:00N 25°44' W 080°10'0 0.0
2017-Oct-14 12:31N 25°44' W 080°10'0 0.0
2017-Oct-14 12:01N 25°44' W 080°10'0 0.0
2017-Oct-14 11:31N 25°44' W 080°10'0 0.0
2017-Oct-14 11:01N 25°44' W 080°10'0 0.0
2017-Oct-14 10:31N 25°44' W 080°10'0 0.0
2017-Oct-14 10:01N 25°44' W 080°10'0 0.0
2017-Oct-14 09:30N 25°44' W 080°10'0 0.0
2017-Oct-14 09:01N 25°44' W 080°10'0 0.0
2017-Oct-14 08:30N 25°44' W 080°10'0 0.0
2017-Oct-14 08:01N 25°44' W 080°10'0 0.0
2017-Oct-14 07:30N 25°44' W 080°10'0 0.0
2017-Oct-14 07:00N 25°44' W 080°10'0 0.0
2017-Oct-14 06:31N 25°44' W 080°10'0 0.0
2017-Oct-14 06:01N 25°44' W 080°10'0 0.0
2017-Oct-14 05:30N 25°44' W 080°10'0 0.0
2017-Oct-14 05:01N 25°44' W 080°10'0 0.0
2017-Oct-14 04:31N 25°44' W 080°10'0 0.0
2017-Oct-14 04:01N 25°44' W 080°10'0 0.0
2017-Oct-14 03:31N 25°44' W 080°10'0 0.0
2017-Oct-14 03:00N 25°44' W 080°10'0 0.0
2017-Oct-14 02:31N 25°44' W 080°10'0 0.0
2017-Oct-14 02:00N 25°44' W 080°10'0 0.0
2017-Oct-14 01:30N 25°44' W 080°10'0 0.0
2017-Oct-14 01:00N 25°44' W 080°10'0 0.0
2017-Oct-14 00:30N 25°44' W 080°10'0 0.0
2017-Oct-14 00:01N 25°44' W 080°10'0 0.0
2017-Oct-13 23:30N 25°44' W 080°10'0 0.0
2017-Oct-13 23:00N 25°44' W 080°10'0 0.0
2017-Oct-13 22:30N 25°44' W 080°10'1 2.7
2017-Oct-13 22:01N 25°43' W 080°11'3 6.9
2017-Oct-13 21:31N 25°39' W 080°11'4 7.7
2017-Oct-13 21:01N 25°38' W 080°07'4 7.8
2017-Oct-13 20:31N 25°35' W 080°05'4 8.5
2017-Oct-13 20:01N 25°31' W 080°05'4 8.8
2017-Oct-13 19:30N 25°26' W 080°07'4 9.0
2017-Oct-13 19:01N 25°22' W 080°08'5 9.3
2017-Oct-13 18:31N 25°18' W 080°09'5 9.1
2017-Oct-13 18:01N 25°13' W 080°11'4 8.2
2017-Oct-13 17:31N 25°10' W 080°14'4 8.7
2017-Oct-13 17:00N 25°06' W 080°17'4 8.7
2017-Oct-13 16:30N 25°03' W 080°19'5 9.0
2017-Oct-13 16:01N 24°59' W 080°23'4 8.6
2017-Oct-13 15:31N 24°57' W 080°26'4 8.2
2017-Oct-13 15:01N 24°55' W 080°30'4 7.1
2017-Oct-13 14:31N 24°52' W 080°33'4 7.7
2017-Oct-13 14:01N 24°50' W 080°37'4 7.4
2017-Oct-13 13:31N 24°50' W 080°41'4 7.1
2017-Oct-13 13:01N 24°49' W 080°45'4 7.3
2017-Oct-13 12:31N 24°47' W 080°48'4 7.4
2017-Oct-13 12:01N 24°45' W 080°52'4 7.3
2017-Oct-13 11:31N 24°44' W 080°55'4 7.4
2017-Oct-13 11:01N 24°42' W 080°59'4 7.2
2017-Oct-13 10:31N 24°40' W 081°02'3 7.0
2017-Oct-13 10:01N 24°37' W 081°05'3 6.9
2017-Oct-13 09:31N 24°36' W 081°08'4 7.0
2017-Oct-13 09:01N 24°36' W 081°12'4 7.4
2017-Oct-13 08:31N 24°36' W 081°16'4 7.4
2017-Oct-13 08:01N 24°37' W 081°20'4 7.4
2017-Oct-13 07:31N 24°36' W 081°24'4 7.4
2017-Oct-13 07:01N 24°35' W 081°28'4 7.4
2017-Oct-13 06:31N 24°35' W 081°32'4 7.2
2017-Oct-13 06:01N 24°34' W 081°36'4 7.3
2017-Oct-13 05:31N 24°33' W 081°40'4 7.5
2017-Oct-13 05:01N 24°32' W 081°44'4 7.4
2017-Oct-13 04:30N 24°32' W 081°48'3 6.6
2017-Oct-13 04:01N 24°34' W 081°50'4 7.9
2017-Oct-13 03:31N 24°37' W 081°53'4 7.3
2017-Oct-13 03:01N 24°40' W 081°55'4 7.8
2017-Oct-13 02:31N 24°44' W 081°57'4 7.8
2017-Oct-13 02:01N 24°48' W 081°58'4 7.9
2017-Oct-13 01:31N 24°51' W 081°59'4 8.0
2017-Oct-13 01:01N 24°55' W 082°01'4 8.0
2017-Oct-13 00:31N 24°59' W 082°02'4 8.0
2017-Oct-13 00:01N 25°03' W 082°04'4 8.1
2017-Oct-12 23:31N 25°07' W 082°05'4 8.2
2017-Oct-12 23:01N 25°10' W 082°07'4 8.2
2017-Oct-12 22:31N 25°14' W 082°08'4 8.2
2017-Oct-12 22:01N 25°18' W 082°10'4 8.2
2017-Oct-12 21:31N 25°22' W 082°12'3 5.2
2017-Oct-12 21:00N 25°24' W 082°12'4 7.1
2017-Oct-12 20:31N 25°26' W 082°09'3 6.8
2017-Oct-12 20:01N 25°28' W 082°06'4 7.9
2017-Oct-12 19:31N 25°32' W 082°05'3 5.3
2017-Oct-12 19:01N 25°35' W 082°04'4 8.1
2017-Oct-12 18:31N 25°38' W 082°01'4 8.2
2017-Oct-12 18:01N 25°41' W 081°59'4 7.2
2017-Oct-12 17:31N 25°44' W 081°57'3 6.8
2017-Oct-12 17:01N 25°47' W 081°54'4 8.4
2017-Oct-12 16:31N 25°50' W 081°51'3 5.9
2017-Oct-12 16:01N 25°53' W 081°50'3 5.7
2017-Oct-12 15:31N 25°55' W 081°48'3 5.1
2017-Oct-12 15:01N 25°57' W 081°46'4 7.5
2017-Oct-12 14:31N 25°53' W 081°45'4 7.8
2017-Oct-12 14:01N 25°49' W 081°45'4 7.7
2017-Oct-12 13:31N 25°46' W 081°44'4 7.5
2017-Oct-12 13:01N 25°42' W 081°44'3 5.7
2017-Oct-12 12:31N 25°39' W 081°43'3 6.4
2017-Oct-12 12:01N 25°40' W 081°40'4 7.7
2017-Oct-12 11:31N 25°42' W 081°36'2 4.9
2017-Oct-12 11:01N 25°44' W 081°34'4 7.4
2017-Oct-12 10:31N 25°46' W 081°31'2 4.2
2017-Oct-12 10:01N 25°47' W 081°29'4 7.4
2017-Oct-12 09:31N 25°43' W 081°29'4 7.5
2017-Oct-12 09:01N 25°39' W 081°29'4 7.5
2017-Oct-12 08:31N 25°36' W 081°28'2 3.9
2017-Oct-12 08:01N 25°35' W 081°26'4 7.3
2017-Oct-12 07:31N 25°35' W 081°22'3 5.3
2017-Oct-12 07:01N 25°35' W 081°19'2 3.0
2017-Oct-12 06:31N 25°34' W 081°18'4 7.1
2017-Oct-12 06:01N 25°31' W 081°20'4 7.0
2017-Oct-12 05:31N 25°27' W 081°21'2 4.5
2017-Oct-12 05:01N 25°27' W 081°19'3 5.9
2017-Oct-12 04:31N 25°27' W 081°15'2 3.3
2017-Oct-12 04:01N 25°26' W 081°14'3 6.1
2017-Oct-12 03:31N 25°23' W 081°14'3 6.9
2017-Oct-12 03:01N 25°20' W 081°14'3 6.3
2017-Oct-12 02:31N 25°20' W 081°10'1 2.1
2017-Oct-12 02:01N 25°20' W 081°09'2 4.0
2017-Oct-12 01:31N 25°19' W 081°11'2 3.2
2017-Oct-12 01:01N 25°21' W 081°12'2 3.7
2017-Oct-12 00:31N 25°21' W 081°14'2 4.2
2017-Oct-12 00:01N 25°21' W 081°16'2 4.6
2017-Oct-11 23:31N 25°21' W 081°19'1 2.7
2017-Oct-11 23:01N 25°21' W 081°20'4 7.6
2017-Oct-11 22:31N 25°21' W 081°24'4 7.8
2017-Oct-11 22:01N 25°21' W 081°29'1 1.5
2017-Oct-11 21:31N 25°21' W 081°29'4 7.9
2017-Oct-11 21:01N 25°21' W 081°34'4 8.1
2017-Oct-11 20:31N 25°21' W 081°38'1 1.8
2017-Oct-11 20:01N 25°20' W 081°39'4 7.6
2017-Oct-11 19:31N 25°17' W 081°39'4 7.8
2017-Oct-11 19:01N 25°13' W 081°40'3 5.3
2017-Oct-11 18:31N 25°10' W 081°39'3 5.8
2017-Oct-11 18:01N 25°10' W 081°36'48 2.7
2017-Oct-11 00:01N 24°24' W 081°50'3 6.9
2017-Oct-10 23:31N 24°26' W 081°47'4 7.7
2017-Oct-10 23:01N 24°28' W 081°44'2 3.2
2017-Oct-10 22:31N 24°29' W 081°42'4 7.2
2017-Oct-10 22:01N 24°29' W 081°38'5 9.4
2017-Oct-10 21:31N 24°29' W 081°33'4 8.5
2017-Oct-10 21:01N 24°29' W 081°28'4 7.2
2017-Oct-10 20:31N 24°29' W 081°24'1 1.1
2017-Oct-10 20:01N 24°29' W 081°24'3 5.5
2017-Oct-10 19:31N 24°31' W 081°26'1 2.5
2017-Oct-10 19:01N 24°32' W 081°25'3 5.1
2017-Oct-10 18:31N 24°34' W 081°25'2 4.3
2017-Oct-10 18:01N 24°37' W 081°25'3 7.0
2017-Oct-10 17:31N 24°37' W 081°21'4 8.5
2017-Oct-10 17:01N 24°38' W 081°17'4 8.1
2017-Oct-10 16:31N 24°40' W 081°13'1 1.4
2017-Oct-10 16:01N 24°39' W 081°12'3 5.3
2017-Oct-10 15:31N 24°37' W 081°11'2 4.7
2017-Oct-10 15:01N 24°34' W 081°11'7 6.5
2017-Oct-10 14:01N 24°35' W 081°04'4 7.5
2017-Oct-10 13:31N 24°36' W 081°00'1 1.6
2017-Oct-10 13:01N 24°37' W 081°00'2 4.9
2017-Oct-10 12:31N 24°39' W 081°01'2 3.6
2017-Oct-10 12:01N 24°41' W 081°02'2 3.2
2017-Oct-10 11:31N 24°42' W 081°02'3 6.4
2017-Oct-10 11:01N 24°43' W 080°58'4 8.4
2017-Oct-10 10:31N 24°45' W 080°54'4 7.1
2017-Oct-10 10:01N 24°47' W 080°52'2 4.0
2017-Oct-10 09:31N 24°45' W 080°51'2 4.6
2017-Oct-10 09:01N 24°43' W 080°50'2 4.4
2017-Oct-10 08:31N 24°43' W 080°48'4 7.1
2017-Oct-10 08:01N 24°43' W 080°44'2 4.6
2017-Oct-10 07:31N 24°43' W 080°41'2 3.2
2017-Oct-10 07:01N 24°45' W 080°43'2 3.3
2017-Oct-10 06:31N 24°46' W 080°44'2 3.6
2017-Oct-10 06:01N 24°48' W 080°45'2 3.3
2017-Oct-10 05:31N 24°49' W 080°45'4 7.9
2017-Oct-10 05:01N 24°51' W 080°41'4 8.4
2017-Oct-10 04:31N 24°53' W 080°38'4 8.0
2017-Oct-10 04:01N 24°56' W 080°34'2 4.0
2017-Oct-10 03:31N 24°55' W 080°32'2 3.1
2017-Oct-10 03:01N 24°54' W 080°31'4 7.6
2017-Oct-10 02:31N 24°56' W 080°27'4 7.3
2017-Oct-10 02:01N 24°59' W 080°24'2 4.6
2017-Oct-10 01:31N 25°00' W 080°22'0 0.8
2017-Oct-10 01:01N 25°00' W 080°22'3 6.9
2017-Oct-10 00:31N 25°02' W 080°19'1 2.9
2017-Oct-10 00:01N 25°03' W 080°17'  

Dump ship's entire track history